AirNav   Pilot Hours Calculator
 
 783 users online  

4FD7 Flanders Field Airport
Polk City, Florida, USA

GOING TO POLK CITY?


FAA INFORMATION EFFECTIVE 16 JUNE 2022

Location

FAA Identifier: 4FD7
Lat/Long: 28-12-23.0490N 081-49-40.2820W
28-12.384150N 081-49.671367W
28.2064025,-81.8278561
(estimated)
Elevation: 131 ft. / 40 m (estimated)
Variation: 02W (1985)
From city: 1 mile N of POLK CITY, FL
Time zone: UTC -4 (UTC -5 during Standard Time)
Zip code: 33868

Airport Operations

Airport use: Private use. Permission required prior to landing
Activation date: 03/1988
Control tower: no
ARTCC: JACKSONVILLE CENTER
FSS: SAINT PETERSBURG FLIGHT SERVICE STATION
Attendance: CONTINUOUS
Wind indicator: yes
Segmented circle: yes

Airport Communications

WX ASOS at GIF (9 nm SE): 133.675 (863-956-2097)
WX AWOS-3 at BOW (16 nm S): 123.775 (863-533-9004)
WX AWOS-3PT at LAL (17 nm SW): 118.025 (863-834-2030)
WX AWOS-3PT at ZPH (17 nm W): 118.975 (813-780-0031)

Airport Services

Runway Information

Runway 18/36

Dimensions: 1800 x 135 ft. / 549 x 41 m
Surface: turf
RUNWAY 18  RUNWAY 36
Traffic pattern: rightleft

Airport Ownership and Management from official FAA records

Ownership: Privately-owned
Owner: CALVIN L. WYATT & SUSAN E. WYATT
6911 CONLEY DR
POLK CITY, FL 33868
Phone 863-984-3935
Manager: ROBERT L. NEWBERRY
804 LAKE HOLLINGSWORTH DR
LAKELAND, FL 33803
Phone 863-899-5216

Additional Remarks

FOR CD CTC ORLANDO APCH AT 407-852-7553.
(CONTACT TITLE) TERRY & GAYE MELTON, C/O MITCHLIND 6801 FLANDERS STATION DR. POLK CITY, FL 33868 863-984-2517 ROBERT L. NEWBERRY 804 LAKE HOLLINGSWORTH DR LAKELAND, FL 33803 863-899-5216 ROBERT & SANDRA LOCK 6925 CONLEY DR POLK CITY, FL 33868 863-984-4061 ANDREW J. SALTER & MARGARET MARY O'KEEF 6917 CONLEY DR POLK CITY, FL 33868 407-409-1268

Instrument Procedures

There are no published instrument procedures at 4FD7.

Some nearby airports with instrument procedures:

KGIF - Winter Haven Regional Airport (9 nm SE)
KBOW - Bartow Executive Airport (16 nm S)
KLAL - Lakeland Linder International Airport (17 nm SW)
KZPH - Zephyrhills Municipal Airport (17 nm W)
KISM - Kissimmee Gateway Airport (21 nm E)
 
Loc | Ops | Rwys | IFR | FBO | Links
Com | Nav | Svcs | Stats | Notes


 
Aerial photo
WARNING: Photo may not be current or correct
Aerial photo of 4FD7 (Flanders Field Airport)
Photo by Andy Smothers
Photo taken 20-Sep-2015
looking north.

Do you have a better or more recent aerial photo of Flanders Field Airport that you would like to share? If so, please send us your photo.

 
Airport distance calculator
Flying to Flanders Field Airport? Find the distance to fly.

From to 4FD7

Sunrise and sunset
Times for 25-Jun-2022
 Local
(UTC-4)
 Zulu
(UTC)
Morning civil twilight06:0610:06
Sunrise06:3310:33
Sunset20:2700:27
Evening civil twilight20:5400:54

Current date and time
Zulu (UTC)  25-Jun-2022 11:34:45
Local (UTC-4)  25-Jun-2022 07:34:45
 
METAR
KGIF 
9nm SE 
251053Z AUTO 30004KT 9SM SCT050 24/23 A3001 RMK AO2 SLP161 T02390228
KBOW 
17nm S 
251115Z AUTO 01003KT 10SM BKN055 24/23 A3001 RMK AO2
KZPH 
17nm W 
251115Z AUTO 00000KT 5SM BR CLR 22/22 A3002 RMK A02 T02190217
KLAL 
18nm SW 
251115Z AUTO 36003KT 7SM CLR 23/23 A3001 RMK AO2 T02320232
TAF
KLAL 
18nm SW 
250541Z 2506/2606 VRB03KT P6SM SCT080 BKN250 FM251600 05006KT P6SM VCTS BKN040CB BKN100 FM260200 07004KT P6SM SCT050 BKN250 AMD NOT SKED TIL 251100
KISM 
21nm E 
250522Z 2506/2606 VRB02KT P6SM SCT100 BKN200 FM251400 04007KT P6SM SCT040 BKN200 FM251600 06012G17KT P6SM VCTS SCT035CB BKN050 BKN200 TEMPO 2517/2520 3SM TSRA BKN030CB BKN070 FM252200 06010G15KT P6SM VCSH FEW025 SCT050 BKN200 FM260100 07004KT P6SM FEW025 SCT100 BKN200
NOTAMs
Click for the latest NOTAMs
NOTAMs are issued by the DoD/FAA and will open in a separate window not controlled by AirNav.

 

 
 

Would you like to see your business listed on this page?

 If your business provides an interesting product or service to pilots, flight crews, aircraft, or users of the Flanders Field Airport, you should consider listing it here.  To start the listing process, click on the button below
 
Add a business
 

Other Pages about Flanders Field Airport

Update a link
 
Copyright © AirNav, LLC. All rights reserved. Privacy Policy  Contact